Lotus, California
Current Conditions -  °F | °C
As of 10:35 AM on Monday 20 Oct 2014 (Local Time) from KPVF Reporting Station
Clear Clear  
Wind Chill: 64°   Ceiling: Unl
Heat Index: 64°   Visibility: 10mi
Dew Point: 46°   Wind: 5mph
Humidity: 52%   Direction: 180°S
Pressure: 30"   Gusts: NA
Location:  38.81°N, 120.92°W
Report Text: KPVF 201735Z AUTO 18004KT 10SM CLR 18/08 A3000 RMK AO1
Loading
Personal Weather Stations






























Interactive Weather Map
Tropical Storm Tracking
New forecast layout! Learn more

10-Day Weather Forecast

Advertisements
Track Severe Weather on mobile